createdAt,value
2023-07-28T04:02:43.027Z,17.40
2023-07-28T04:05:14.905Z,17.40
2023-07-28T04:07:46.643Z,17.40
2023-07-28T04:10:18.548Z,17.40
2023-07-28T04:12:50.277Z,17.40
2023-07-28T04:15:21.987Z,17.40
2023-07-28T04:17:55.078Z,17.50
2023-07-28T04:20:26.811Z,17.40
2023-07-28T04:22:58.572Z,17.50
2023-07-28T04:25:30.344Z,17.50
2023-07-28T04:28:02.084Z,17.50
2023-07-28T04:30:33.818Z,17.50
2023-07-28T04:33:06.960Z,17.80
2023-07-28T04:35:38.715Z,17.60
2023-07-28T04:38:10.436Z,17.60
2023-07-28T04:40:42.170Z,17.60
2023-07-28T04:43:13.887Z,17.60
2023-07-28T04:45:45.731Z,17.60
2023-07-28T04:48:18.871Z,17.80
2023-07-28T04:50:50.572Z,17.70
2023-07-28T04:53:22.296Z,17.70
2023-07-28T04:55:54.058Z,17.70
2023-07-28T04:58:25.796Z,17.70
2023-07-28T05:00:57.578Z,17.70
2023-07-28T05:03:30.649Z,17.70
2023-07-28T05:06:04.314Z,17.70
2023-07-28T05:08:36.197Z,17.80
2023-07-28T05:11:07.981Z,17.80
2023-07-28T05:13:39.700Z,17.90
2023-07-28T05:16:11.436Z,17.80
2023-07-28T05:18:44.523Z,17.80
2023-07-28T05:21:16.245Z,17.80
2023-07-28T05:23:47.993Z,17.90
2023-07-28T05:26:19.710Z,17.90
2023-07-28T05:28:51.439Z,17.90
2023-07-28T05:31:23.224Z,17.90
2023-07-28T05:33:56.336Z,18.00
2023-07-28T05:36:28.028Z,18.00
2023-07-28T05:38:59.770Z,18.00
2023-07-28T05:41:31.484Z,18.10
2023-07-28T05:44:03.240Z,18.10
2023-07-28T05:46:35.009Z,18.10
2023-07-28T05:49:08.155Z,18.10
2023-07-28T05:51:39.880Z,18.20
2023-07-28T05:54:12.542Z,18.20
2023-07-28T05:56:44.282Z,18.20
2023-07-28T05:59:16.014Z,18.20
2023-07-28T06:01:47.767Z,18.20
2023-07-28T06:04:20.951Z,18.20
2023-07-28T06:06:52.715Z,18.30
2023-07-28T06:09:24.437Z,18.30
2023-07-28T06:11:56.166Z,18.30
2023-07-28T06:14:27.924Z,18.40
2023-07-28T06:16:59.641Z,18.40
2023-07-28T06:19:32.748Z,18.50
2023-07-28T06:22:05.175Z,18.50
2023-07-28T06:24:36.913Z,18.50
2023-07-28T06:27:08.659Z,18.50
2023-07-28T06:29:40.427Z,18.50
2023-07-28T06:32:12.135Z,18.60
2023-07-28T06:34:45.353Z,18.70
2023-07-28T06:37:17.077Z,18.70
2023-07-28T06:39:48.824Z,18.70
2023-07-28T06:42:20.517Z,18.80
2023-07-28T06:44:52.265Z,18.70
2023-07-28T06:47:24.050Z,18.80
2023-07-28T06:49:57.150Z,18.80
2023-07-28T06:52:28.884Z,18.80
2023-07-28T06:55:00.616Z,18.70
2023-07-28T06:57:32.345Z,18.70
2023-07-28T07:00:04.541Z,18.80
2023-07-28T07:02:36.347Z,18.70
2023-07-28T07:05:09.911Z,18.70
2023-07-28T07:07:41.852Z,18.70
2023-07-28T07:10:14.687Z,18.70
2023-07-28T07:12:46.480Z,18.70
2023-07-28T07:15:18.319Z,18.80
2023-07-28T07:17:50.111Z,18.80
2023-07-28T07:20:23.353Z,18.90
2023-07-28T07:22:56.990Z,18.90
2023-07-28T07:25:29.950Z,18.90
2023-07-28T07:28:01.653Z,18.90
2023-07-28T07:30:33.701Z,18.90
2023-07-28T07:33:05.419Z,19.00
2023-07-28T07:35:38.839Z,19.00
2023-07-28T07:38:10.708Z,19.00
2023-07-28T07:40:42.426Z,19.00
2023-07-28T07:43:14.141Z,19.00
2023-07-28T07:45:45.925Z,19.10
2023-07-28T07:48:17.703Z,19.10
2023-07-28T07:50:50.759Z,19.20
2023-07-28T07:53:22.522Z,19.20
2023-07-28T07:55:54.229Z,19.20
2023-07-28T07:58:25.960Z,19.20
2023-07-28T08:00:57.698Z,19.30
2023-07-28T08:03:29.426Z,19.30
2023-07-28T08:06:02.485Z,19.40
2023-07-28T08:08:34.206Z,19.50
2023-07-28T08:11:05.978Z,19.60
2023-07-28T08:13:37.742Z,19.80
2023-07-28T08:16:09.479Z,20.00
2023-07-28T08:18:41.200Z,20.40
2023-07-28T08:21:14.279Z,20.60
2023-07-28T08:23:45.985Z,20.60
2023-07-28T08:26:17.712Z,20.70
2023-07-28T08:28:49.433Z,20.80
2023-07-28T08:31:21.225Z,20.80
2023-07-28T08:33:53.007Z,21.10
2023-07-28T08:36:26.124Z,21.10
2023-07-28T08:38:58.060Z,21.20
2023-07-28T08:41:29.759Z,21.30
2023-07-28T08:46:33.559Z,21.80
2023-07-28T08:49:05.280Z,22.10
2023-07-28T08:51:43.076Z,22.30
2023-07-28T08:54:14.777Z,22.40
2023-07-28T08:59:22.157Z,23.50
2023-07-28T09:04:28.912Z,24.90
2023-07-28T09:07:03.530Z,25.30
2023-07-28T09:09:36.113Z,26.10
2023-07-28T09:12:08.804Z,26.40
2023-07-28T09:14:40.509Z,26.70
2023-07-28T09:17:13.488Z,26.70
2023-07-28T09:19:52.016Z,26.70
2023-07-28T09:22:25.107Z,26.50
2023-07-28T09:24:56.809Z,26.70
2023-07-28T09:27:28.517Z,26.50
2023-07-28T09:30:00.237Z,26.20
2023-07-28T09:35:08.664Z,25.10
2023-07-28T09:37:42.391Z,24.80
2023-07-28T09:40:17.080Z,24.60
2023-07-28T09:42:50.676Z,24.40
2023-07-28T09:45:35.367Z,24.20
2023-07-28T09:48:10.655Z,24.10
2023-07-28T09:50:42.607Z,24.00
2023-07-28T09:53:15.678Z,23.90
2023-07-28T09:55:47.439Z,23.80
2023-07-28T09:58:19.158Z,23.80
2023-07-28T10:00:50.867Z,23.80
2023-07-28T10:03:22.639Z,23.80
2023-07-28T10:05:54.455Z,24.00
2023-07-28T10:08:27.555Z,24.40
2023-07-28T10:10:59.256Z,24.70
2023-07-28T10:13:39.997Z,24.90
2023-07-28T10:16:11.817Z,25.00
2023-07-28T10:18:44.777Z,25.00
2023-07-28T10:21:16.872Z,25.00
2023-07-28T10:23:56.312Z,24.80
2023-07-28T10:26:37.015Z,24.60
2023-07-28T10:29:09.859Z,24.40
2023-07-28T10:31:51.520Z,24.30
2023-07-28T10:34:23.315Z,24.20
2023-07-28T10:36:58.093Z,24.20
2023-07-28T10:39:31.156Z,24.30
2023-07-28T10:42:04.689Z,24.50
2023-07-28T10:44:36.455Z,24.80
2023-07-28T10:47:08.822Z,25.00
2023-07-28T10:49:40.560Z,25.10
2023-07-28T10:52:12.287Z,24.90
2023-07-28T10:54:45.403Z,24.80
2023-07-28T10:57:17.204Z,24.90
2023-07-28T10:59:48.906Z,25.10
2023-07-28T11:02:20.885Z,25.30
2023-07-28T11:04:52.666Z,25.50
2023-07-28T11:07:24.409Z,25.60
2023-07-28T11:09:57.475Z,25.80
2023-07-28T11:12:29.159Z,25.80
2023-07-28T11:15:00.900Z,25.50
2023-07-28T11:17:32.613Z,25.50
2023-07-28T11:20:05.251Z,25.30
2023-07-28T11:22:37.723Z,25.30
2023-07-28T11:25:11.039Z,25.50
2023-07-28T11:27:42.732Z,25.80
2023-07-28T11:30:15.026Z,25.90
2023-07-28T11:32:48.434Z,25.80
2023-07-28T11:35:20.852Z,25.80
2023-07-28T11:37:53.580Z,25.90
2023-07-28T11:40:26.641Z,25.90
2023-07-28T11:42:58.393Z,25.90
2023-07-28T11:45:30.577Z,25.90
2023-07-28T11:48:03.409Z,25.90
2023-07-28T11:50:39.048Z,25.70
2023-07-28T11:53:10.943Z,25.70
2023-07-28T11:55:43.996Z,25.70
2023-07-28T11:58:15.673Z,25.70
2023-07-28T12:00:47.387Z,25.80
2023-07-28T12:03:19.264Z,25.90
2023-07-28T12:08:39.886Z,26.10
2023-07-28T12:19:15.008Z,26.60
2023-07-28T12:21:46.757Z,26.90
2023-07-28T12:24:18.440Z,27.90
2023-07-28T12:26:53.386Z,26.90
2023-07-28T12:32:02.886Z,26.60
2023-07-28T12:34:46.008Z,26.50
2023-07-28T12:37:57.610Z,26.40
2023-07-28T12:45:25.240Z,25.80
2023-07-28T12:47:59.583Z,25.70
2023-07-28T12:50:41.575Z,25.50
2023-07-28T12:53:16.717Z,25.40
2023-07-28T13:01:03.391Z,25.30
2023-07-28T13:03:35.430Z,25.30
2023-07-28T13:06:07.170Z,25.20
2023-07-28T13:13:49.436Z,24.60
2023-07-28T13:16:21.244Z,24.40
2023-07-28T13:18:53.483Z,24.30
2023-07-28T13:21:25.174Z,24.20
2023-07-28T13:23:56.867Z,24.20
2023-07-28T13:26:28.608Z,24.30
2023-07-28T13:29:01.671Z,24.50
2023-07-28T13:31:33.554Z,24.70
2023-07-28T13:34:05.687Z,24.90
2023-07-28T13:36:37.399Z,25.10
2023-07-28T13:39:09.100Z,25.30
2023-07-28T13:41:40.793Z,25.40
2023-07-28T13:44:15.447Z,25.50
2023-07-28T13:46:47.247Z,25.40
2023-07-28T13:49:21.041Z,25.40
2023-07-28T13:54:27.839Z,25.90
2023-07-28T13:57:01.778Z,26.30
2023-07-28T13:59:35.010Z,26.50
2023-07-28T14:02:07.034Z,26.80
2023-07-28T14:04:38.784Z,26.80
2023-07-28T14:07:10.844Z,26.80
2023-07-28T14:09:42.545Z,26.60
2023-07-28T14:12:14.231Z,26.50
2023-07-28T14:14:47.251Z,26.50
2023-07-28T14:17:18.949Z,26.50
2023-07-28T14:19:50.627Z,26.70
2023-07-28T14:22:22.305Z,26.60
2023-07-28T14:24:54.030Z,26.60
2023-07-28T14:27:25.706Z,26.60
2023-07-28T14:29:58.798Z,26.60
2023-07-28T14:32:30.500Z,26.60
2023-07-28T14:35:02.278Z,26.70
2023-07-28T14:37:33.976Z,26.60
2023-07-28T14:40:07.082Z,26.50
2023-07-28T14:42:38.767Z,26.40
2023-07-28T14:45:11.890Z,26.40
2023-07-28T14:47:43.588Z,26.30
2023-07-28T14:50:15.325Z,26.30
2023-07-28T14:52:47.022Z,26.30
2023-07-28T14:55:18.801Z,26.20
2023-07-28T14:57:50.515Z,26.00
2023-07-28T15:00:23.668Z,26.00
2023-07-28T15:02:55.394Z,26.00
2023-07-28T15:05:27.095Z,26.10
2023-07-28T15:07:58.789Z,26.20
2023-07-28T15:10:30.478Z,26.30
2023-07-28T15:13:02.189Z,26.20
2023-07-28T15:15:35.241Z,26.20
2023-07-28T15:18:06.986Z,26.20
2023-07-28T15:20:38.700Z,25.90
2023-07-28T15:23:10.423Z,25.70
2023-07-28T15:25:42.110Z,25.30
2023-07-28T15:28:13.910Z,25.00
2023-07-28T15:30:47.039Z,24.80
2023-07-28T15:33:18.735Z,24.50
2023-07-28T15:35:50.427Z,24.40
2023-07-28T15:38:22.123Z,24.20
2023-07-28T15:40:53.875Z,24.30
2023-07-28T15:43:25.698Z,24.40
2023-07-28T15:45:58.821Z,24.10
2023-07-28T15:48:30.628Z,24.10
2023-07-28T15:51:02.330Z,24.30
2023-07-28T15:53:34.084Z,24.30
2023-07-28T15:56:05.772Z,24.40
2023-07-28T15:58:37.489Z,24.40
2023-07-28T16:01:10.541Z,24.30
2023-07-28T16:03:42.258Z,24.00
2023-07-28T16:06:13.947Z,23.60
2023-07-28T16:08:45.665Z,23.30
2023-07-28T16:11:17.352Z,23.20
2023-07-28T16:13:49.055Z,23.00
2023-07-28T16:16:22.314Z,22.90
2023-07-28T16:18:54.124Z,22.90
2023-07-28T16:23:57.908Z,23.00
2023-07-28T16:26:30.037Z,23.20
2023-07-28T16:29:01.744Z,21.90
2023-07-28T16:31:35.155Z,23.30
2023-07-28T16:34:07.177Z,23.30
2023-07-28T16:36:38.878Z,23.30
2023-07-28T16:39:10.582Z,23.30
2023-07-28T16:41:42.287Z,23.40
2023-07-28T16:44:13.958Z,23.30
2023-07-28T16:46:47.025Z,23.30
2023-07-28T16:49:18.721Z,23.30
2023-07-28T16:51:50.490Z,23.30
2023-07-28T16:54:24.334Z,23.40
2023-07-28T16:56:56.409Z,23.40
2023-07-28T16:59:28.104Z,23.40
2023-07-28T17:02:01.152Z,23.50
2023-07-28T17:04:32.864Z,23.60
2023-07-28T17:07:04.962Z,23.80
2023-07-28T17:09:36.671Z,23.90
2023-07-28T17:12:21.066Z,23.90
2023-07-28T17:14:52.764Z,23.90
2023-07-28T17:17:25.908Z,23.90
2023-07-28T17:19:57.636Z,24.00
2023-07-28T17:22:29.359Z,23.90
2023-07-28T17:25:01.063Z,23.70
2023-07-28T17:27:32.788Z,23.60
2023-07-28T17:30:05.661Z,23.40
2023-07-28T17:32:38.805Z,23.30
2023-07-28T17:35:10.522Z,23.20
2023-07-28T17:37:42.257Z,23.20
2023-07-28T17:40:14.044Z,23.20
2023-07-28T17:42:45.758Z,23.10
2023-07-28T17:45:17.647Z,23.00
2023-07-28T17:47:50.783Z,23.00
2023-07-28T17:50:22.572Z,22.90
2023-07-28T17:52:54.278Z,22.90
2023-07-28T17:55:25.997Z,22.90
2023-07-28T17:57:57.681Z,22.80
2023-07-28T18:00:29.411Z,22.80
2023-07-28T18:03:02.680Z,22.80
2023-07-28T18:05:34.451Z,22.80
2023-07-28T18:08:06.159Z,22.80
2023-07-28T18:10:38.097Z,22.80
2023-07-28T18:13:09.797Z,22.80
2023-07-28T18:15:41.575Z,22.70
2023-07-28T18:18:14.690Z,22.70
2023-07-28T18:20:46.426Z,22.80
2023-07-28T18:23:18.158Z,22.90
2023-07-28T18:25:49.877Z,22.90
2023-07-28T18:28:21.639Z,23.00
2023-07-28T18:30:53.400Z,23.00
2023-07-28T18:33:28.096Z,23.00
2023-07-28T18:36:01.789Z,22.50
2023-07-28T18:38:33.570Z,22.80
2023-07-28T18:41:05.455Z,22.80
2023-07-28T18:43:37.312Z,22.70
2023-07-28T18:46:09.061Z,22.60
2023-07-28T18:48:42.696Z,22.50
2023-07-28T18:51:14.430Z,22.40
2023-07-28T18:53:46.260Z,22.30
2023-07-28T18:56:18.054Z,22.50
2023-07-28T18:58:49.779Z,22.20
2023-07-28T19:01:21.541Z,22.10
2023-07-28T19:03:54.692Z,22.00
2023-07-28T19:06:26.501Z,22.00
2023-07-28T19:08:58.226Z,21.90
2023-07-28T19:11:29.944Z,21.90
2023-07-28T19:14:01.649Z,21.80
2023-07-28T19:16:33.392Z,21.80
2023-07-28T19:19:06.464Z,21.80
2023-07-28T19:21:38.328Z,21.70
2023-07-28T19:24:10.278Z,21.70
2023-07-28T19:26:41.987Z,21.70
2023-07-28T19:29:13.798Z,21.70
2023-07-28T19:31:45.724Z,21.70
2023-07-28T19:34:18.817Z,21.70
2023-07-28T19:36:50.525Z,21.70
2023-07-28T19:39:22.234Z,21.70
2023-07-28T19:41:53.942Z,21.70
2023-07-28T19:44:40.146Z,21.70
2023-07-28T19:47:13.752Z,21.70
2023-07-28T19:49:52.494Z,21.70
2023-07-28T19:52:24.256Z,21.60
2023-07-28T19:54:55.954Z,21.60
2023-07-28T19:57:27.672Z,21.60
2023-07-28T19:59:59.386Z,21.60
2023-07-28T20:02:31.171Z,21.60
2023-07-28T20:05:05.215Z,21.60
2023-07-28T20:07:36.954Z,21.60
2023-07-28T20:10:09.797Z,21.60
2023-07-28T20:12:41.610Z,21.60
2023-07-28T20:15:13.306Z,21.60
2023-07-28T20:17:47.496Z,21.60
2023-07-28T20:20:21.054Z,21.50
2023-07-28T20:22:52.755Z,21.50
2023-07-28T20:25:24.520Z,21.60
2023-07-28T20:27:56.271Z,21.60
2023-07-28T20:30:28.080Z,21.50
2023-07-28T20:32:59.815Z,21.60
2023-07-28T20:35:32.902Z,21.50
2023-07-28T20:38:04.612Z,21.40
2023-07-28T20:40:36.350Z,21.30
2023-07-28T20:43:08.105Z,21.30
2023-07-28T20:45:39.806Z,21.30
2023-07-28T20:48:11.529Z,21.20
2023-07-28T20:50:44.604Z,21.20
2023-07-28T20:53:16.868Z,21.10
2023-07-28T20:55:49.089Z,21.10
2023-07-28T20:58:20.808Z,21.10
2023-07-28T21:00:52.644Z,21.00
2023-07-28T21:03:24.625Z,21.00
2023-07-28T21:05:57.747Z,21.00
2023-07-28T21:08:29.456Z,21.00
2023-07-28T21:13:33.238Z,20.90
2023-07-28T21:16:05.305Z,20.70
2023-07-28T21:21:10.672Z,20.80
2023-07-28T21:26:14.653Z,20.70
2023-07-28T21:28:46.370Z,20.80
2023-07-28T21:33:50.239Z,20.70
2023-07-28T21:36:23.301Z,20.70
2023-07-28T21:38:55.023Z,20.60
2023-07-28T21:41:26.728Z,20.60
2023-07-28T21:43:58.487Z,20.70
2023-07-28T21:46:30.302Z,20.60
2023-07-28T21:49:02.105Z,20.60
2023-07-28T21:51:35.167Z,20.60
2023-07-28T21:54:06.882Z,20.60
2023-07-28T21:59:12.915Z,20.50
2023-07-28T23:05:40.361Z,20.00
2023-07-28T23:08:12.073Z,19.90
2023-07-28T23:10:43.756Z,19.90
2023-07-28T23:13:15.456Z,19.90
2023-07-28T23:15:47.149Z,19.90
2023-07-28T23:18:18.889Z,19.80
2023-07-28T23:20:52.034Z,19.80
2023-07-28T23:23:23.736Z,19.80
2023-07-28T23:25:55.428Z,19.90
2023-07-28T23:28:27.192Z,19.90
2023-07-28T23:31:12.344Z,19.90
2023-07-28T23:33:44.560Z,19.90
2023-07-28T23:36:17.618Z,20.00
2023-07-28T23:38:49.328Z,20.00
2023-07-28T23:41:21.035Z,20.00
2023-07-28T23:43:52.721Z,20.00
2023-07-28T23:46:24.482Z,20.00
2023-07-28T23:48:56.215Z,20.00
2023-07-28T23:51:29.295Z,20.00
2023-07-28T23:54:01.023Z,20.00
2023-07-28T23:56:32.750Z,19.90
2023-07-28T23:59:04.457Z,20.00
